N365AD KSAN-KLAX
Flight info
| Callsign | N365AD |
|---|---|
| Flight time | N/A |
| Altitude | VFR/025 |
| Route | VFR |
| Aircraft | C172/L-DOV/C |
Departure
| Time | 2026-05-04 03:31 |
|---|---|
| Airport | San Diego International Airport (KSAN) |
Arrival
| Time | N/A |
|---|---|
| Airport | Los Angeles International Airport (KLAX) |
| Time | Latitude | Longitude | Altitude | Speed | Heading |
|---|---|---|---|---|---|
| 2026-05-04 03:21 | 32.73457 | -117.18541 | 19 ft | 0 kts | 17° |
| 2026-05-04 03:25 | 32.73459 | -117.18540 | 18 ft | 4 kts | 18° |
| 2026-05-04 03:25 | 32.73449 | -117.18476 | 19 ft | 12 kts | 142° |
| 2026-05-04 03:25 | 32.73350 | -117.18391 | 20 ft | 24 kts | 143° |
| 2026-05-04 03:25 | 32.73276 | -117.18170 | 19 ft | 34 kts | 110° |
| 2026-05-04 03:26 | 32.73208 | -117.17907 | 17 ft | 31 kts | 114° |
| 2026-05-04 03:26 | 32.73158 | -117.17677 | 19 ft | 27 kts | 108° |
| 2026-05-04 03:26 | 32.73093 | -117.17550 | 18 ft | 1 kts | 179° |
| 2026-05-04 03:26 | 32.73093 | -117.17549 | 18 ft | 0 kts | 181° |
| 2026-05-04 03:30 | 32.73029 | -117.17638 | 17 ft | 40 kts | 275° |
| 2026-05-04 03:30 | 32.73179 | -117.18098 | 149 ft | 74 kts | 294° |
| 2026-05-04 03:30 | 32.73507 | -117.18728 | 209 ft | 101 kts | 309° |
| 2026-05-04 03:30 | 32.74190 | -117.19095 | 322 ft | 111 kts | 326° |
| 2026-05-04 03:31 | 32.74821 | -117.19639 | 406 ft | 115 kts | 322° |
| 2026-05-04 03:31 | 32.75472 | -117.20191 | 414 ft | 117 kts | 321° |
| 2026-05-04 03:31 | 32.76139 | -117.20755 | 456 ft | 116 kts | 320° |
| 2026-05-04 03:31 | 32.76747 | -117.21300 | 711 ft | 103 kts | 320° |
| 2026-05-04 03:32 | 32.77334 | -117.21820 | 939 ft | 96 kts | 322° |
| 2026-05-04 03:32 | 32.77936 | -117.22317 | 999 ft | 114 kts | 321° |
| 2026-05-04 03:32 | 32.78559 | -117.22803 | 1306 ft | 100 kts | 322° |
| 2026-05-04 03:32 | 32.79109 | -117.23245 | 1647 ft | 91 kts | 320° |
| 2026-05-04 03:33 | 32.79617 | -117.23638 | 1996 ft | 84 kts | 319° |
| 2026-05-04 03:33 | 32.80104 | -117.23999 | 2342 ft | 81 kts | 320° |
| 2026-05-04 03:33 | 32.80561 | -117.24350 | 2698 ft | 77 kts | 320° |
| 2026-05-04 03:33 | 32.81012 | -117.24679 | 2992 ft | 81 kts | 320° |
| 2026-05-04 03:34 | 32.81553 | -117.25104 | 3011 ft | 103 kts | 320° |
| 2026-05-04 03:34 | 32.82183 | -117.25623 | 3003 ft | 114 kts | 321° |
| 2026-05-04 03:34 | 32.82837 | -117.26169 | 3001 ft | 117 kts | 320° |
| 2026-05-04 03:34 | 32.83515 | -117.26729 | 3003 ft | 119 kts | 321° |
| 2026-05-04 03:35 | 32.84190 | -117.27292 | 3004 ft | 118 kts | 321° |
| 2026-05-04 03:35 | 32.84867 | -117.27849 | 2996 ft | 118 kts | 321° |
| 2026-05-04 03:35 | 32.85536 | -117.28401 | 2998 ft | 117 kts | 321° |
| 2026-05-04 03:35 | 32.86191 | -117.28941 | 2991 ft | 116 kts | 321° |
| 2026-05-04 03:36 | 32.86853 | -117.29495 | 2996 ft | 117 kts | 321° |
| 2026-05-04 03:36 | 32.87523 | -117.30047 | 2997 ft | 118 kts | 322° |
| 2026-05-04 03:36 | 32.88188 | -117.30624 | 2993 ft | 119 kts | 321° |
| 2026-05-04 03:36 | 32.88865 | -117.31198 | 2999 ft | 119 kts | 321° |
| 2026-05-04 03:37 | 32.89534 | -117.31764 | 2996 ft | 118 kts | 320° |
| 2026-05-04 03:37 | 32.90205 | -117.32336 | 2996 ft | 119 kts | 321° |
| 2026-05-04 03:37 | 32.90881 | -117.32907 | 2989 ft | 119 kts | 321° |
| 2026-05-04 03:37 | 32.91556 | -117.33476 | 2993 ft | 118 kts | 320° |
| 2026-05-04 03:38 | 32.92231 | -117.34037 | 2992 ft | 119 kts | 322° |
| 2026-05-04 03:38 | 32.92897 | -117.34606 | 2986 ft | 119 kts | 320° |
| 2026-05-04 03:38 | 32.93571 | -117.35165 | 2989 ft | 118 kts | 321° |
| 2026-05-04 03:38 | 32.94236 | -117.35721 | 2991 ft | 119 kts | 321° |
| 2026-05-04 03:39 | 32.94907 | -117.36283 | 2987 ft | 118 kts | 321° |
| 2026-05-04 03:39 | 32.95582 | -117.36839 | 2984 ft | 118 kts | 321° |
| 2026-05-04 03:39 | 32.96251 | -117.37399 | 2985 ft | 118 kts | 321° |
| 2026-05-04 03:39 | 32.96920 | -117.37954 | 2981 ft | 116 kts | 321° |
| 2026-05-04 03:40 | 32.97581 | -117.38500 | 2985 ft | 116 kts | 321° |
| 2026-05-04 03:40 | 32.98239 | -117.39056 | 2981 ft | 116 kts | 321° |
| 2026-05-04 03:40 | 32.98899 | -117.39608 | 2983 ft | 116 kts | 321° |
| 2026-05-04 03:40 | 32.99558 | -117.40164 | 2978 ft | 116 kts | 320° |
| 2026-05-04 03:41 | 33.00197 | -117.40699 | 3139 ft | 106 kts | 320° |
| 2026-05-04 03:41 | 33.00785 | -117.41185 | 3377 ft | 101 kts | 320° |
| 2026-05-04 03:41 | 33.01368 | -117.41668 | 3475 ft | 106 kts | 321° |
| 2026-05-04 03:41 | 33.01996 | -117.42186 | 3481 ft | 113 kts | 321° |
| 2026-05-04 03:42 | 33.02648 | -117.42726 | 3493 ft | 116 kts | 321° |
| 2026-05-04 03:42 | 33.03310 | -117.43279 | 3488 ft | 117 kts | 321° |
| 2026-05-04 03:42 | 33.03978 | -117.43841 | 3490 ft | 118 kts | 321° |
| 2026-05-04 03:42 | 33.04650 | -117.44405 | 3488 ft | 118 kts | 321° |
| 2026-05-04 03:43 | 33.05309 | -117.44967 | 3492 ft | 118 kts | 321° |
| 2026-05-04 03:43 | 33.05981 | -117.45526 | 3483 ft | 119 kts | 321° |
| 2026-05-04 03:43 | 33.06651 | -117.46093 | 3485 ft | 118 kts | 321° |
| 2026-05-04 03:43 | 33.07318 | -117.46656 | 3484 ft | 117 kts | 321° |
| 2026-05-04 03:44 | 33.07988 | -117.47217 | 3484 ft | 117 kts | 321° |
| 2026-05-04 03:44 | 33.08655 | -117.47774 | 3475 ft | 117 kts | 322° |
| 2026-05-04 03:44 | 33.09315 | -117.48340 | 3477 ft | 117 kts | 321° |
| 2026-05-04 03:44 | 33.09975 | -117.48896 | 3473 ft | 116 kts | 321° |
| 2026-05-04 03:45 | 33.10633 | -117.49455 | 3474 ft | 116 kts | 321° |
| 2026-05-04 03:45 | 33.11280 | -117.50006 | 3475 ft | 116 kts | 320° |
| 2026-05-04 03:45 | 33.11937 | -117.50565 | 3475 ft | 116 kts | 321° |
| 2026-05-04 03:45 | 33.12592 | -117.51119 | 3476 ft | 116 kts | 321° |
| 2026-05-04 03:46 | 33.13254 | -117.51669 | 3476 ft | 116 kts | 322° |
| 2026-05-04 03:46 | 33.13914 | -117.52219 | 3471 ft | 115 kts | 321° |
| 2026-05-04 03:46 | 33.14571 | -117.52771 | 3472 ft | 116 kts | 321° |
| 2026-05-04 03:46 | 33.15231 | -117.53328 | 3478 ft | 116 kts | 321° |
| 2026-05-04 03:47 | 33.15891 | -117.53883 | 3478 ft | 116 kts | 321° |
| 2026-05-04 03:47 | 33.16555 | -117.54445 | 3482 ft | 118 kts | 321° |
| 2026-05-04 03:47 | 33.17217 | -117.54997 | 3481 ft | 117 kts | 321° |
| 2026-05-04 03:47 | 33.17884 | -117.55546 | 3478 ft | 117 kts | 321° |
| 2026-05-04 03:48 | 33.18569 | -117.56110 | 3479 ft | 118 kts | 321° |
| 2026-05-04 03:48 | 33.19227 | -117.56660 | 3481 ft | 117 kts | 321° |
| 2026-05-04 03:48 | 33.19906 | -117.57215 | 3482 ft | 119 kts | 321° |
| 2026-05-04 03:48 | 33.20584 | -117.57777 | 3484 ft | 120 kts | 321° |
| 2026-05-04 03:49 | 33.21282 | -117.58354 | 3479 ft | 122 kts | 322° |
| 2026-05-04 03:49 | 33.21969 | -117.58932 | 3476 ft | 120 kts | 320° |
| 2026-05-04 03:49 | 33.22652 | -117.59510 | 3478 ft | 120 kts | 321° |
| 2026-05-04 03:49 | 33.23333 | -117.60078 | 3476 ft | 119 kts | 320° |
| 2026-05-04 03:50 | 33.24010 | -117.60636 | 3474 ft | 118 kts | 321° |
| 2026-05-04 03:50 | 33.24682 | -117.61184 | 3466 ft | 116 kts | 321° |
| 2026-05-04 03:50 | 33.25340 | -117.61720 | 3471 ft | 116 kts | 321° |
| 2026-05-04 03:50 | 33.26004 | -117.62271 | 3466 ft | 117 kts | 321° |
| 2026-05-04 03:51 | 33.26661 | -117.62822 | 3469 ft | 115 kts | 320° |
| 2026-05-04 03:51 | 33.27323 | -117.63368 | 3466 ft | 116 kts | 321° |
| 2026-05-04 03:51 | 33.27980 | -117.63914 | 3471 ft | 116 kts | 321° |
| 2026-05-04 03:51 | 33.28643 | -117.64461 | 3473 ft | 115 kts | 321° |
| 2026-05-04 03:52 | 33.29301 | -117.65002 | 3474 ft | 115 kts | 321° |
| 2026-05-04 03:52 | 33.29963 | -117.65551 | 3471 ft | 116 kts | 320° |
| 2026-05-04 03:52 | 33.30622 | -117.66096 | 3480 ft | 114 kts | 322° |
| 2026-05-04 03:52 | 33.31277 | -117.66639 | 3499 ft | 114 kts | 320° |
| 2026-05-04 03:53 | 33.31934 | -117.67185 | 3501 ft | 116 kts | 321° |
| 2026-05-04 03:53 | 33.32594 | -117.67738 | 3501 ft | 116 kts | 320° |
| 2026-05-04 03:53 | 33.33249 | -117.68288 | 3505 ft | 118 kts | 321° |
| 2026-05-04 03:53 | 33.33917 | -117.68855 | 3505 ft | 117 kts | 320° |
| 2026-05-04 03:54 | 33.34589 | -117.69414 | 3508 ft | 118 kts | 321° |
| 2026-05-04 03:54 | 33.35267 | -117.69983 | 3505 ft | 119 kts | 321° |
| 2026-05-04 03:54 | 33.35941 | -117.70551 | 3505 ft | 118 kts | 321° |
| 2026-05-04 03:54 | 33.36611 | -117.71120 | 3505 ft | 119 kts | 322° |
| 2026-05-04 03:55 | 33.37281 | -117.71687 | 3503 ft | 117 kts | 321° |
| 2026-05-04 03:55 | 33.37955 | -117.72254 | 3507 ft | 120 kts | 322° |
| 2026-05-04 03:55 | 33.38632 | -117.72827 | 3505 ft | 118 kts | 320° |
| 2026-05-04 03:55 | 33.39305 | -117.73390 | 3503 ft | 119 kts | 322° |
| 2026-05-04 03:56 | 33.39971 | -117.73949 | 3503 ft | 119 kts | 321° |
| 2026-05-04 03:56 | 33.40649 | -117.74514 | 3506 ft | 118 kts | 321° |
| 2026-05-04 03:56 | 33.41324 | -117.75071 | 3505 ft | 118 kts | 322° |
| 2026-05-04 03:56 | 33.41995 | -117.75630 | 3501 ft | 117 kts | 320° |
| 2026-05-04 03:57 | 33.42665 | -117.76182 | 3504 ft | 117 kts | 320° |
| 2026-05-04 03:57 | 33.43337 | -117.76737 | 3503 ft | 118 kts | 321° |
| 2026-05-04 03:57 | 33.44003 | -117.77302 | 3508 ft | 117 kts | 321° |
| 2026-05-04 03:57 | 33.44648 | -117.77838 | 3492 ft | 109 kts | 320° |
| 2026-05-04 03:58 | 33.45946 | -117.78915 | 3500 ft | 117 kts | 320° |
| 2026-05-04 03:58 | 33.46617 | -117.79468 | 3501 ft | 117 kts | 322° |
| 2026-05-04 03:58 | 33.47289 | -117.80022 | 3506 ft | 117 kts | 321° |
| 2026-05-04 03:59 | 33.47960 | -117.80583 | 3506 ft | 118 kts | 320° |
| 2026-05-04 03:59 | 33.48604 | -117.81126 | 3513 ft | 120 kts | 321° |
| 2026-05-04 03:59 | 33.49253 | -117.81665 | 3515 ft | 115 kts | 321° |
| 2026-05-04 03:59 | 33.49930 | -117.82241 | 3528 ft | 120 kts | 321° |
| 2026-05-04 04:00 | 33.50607 | -117.82801 | 3525 ft | 122 kts | 321° |
| 2026-05-04 04:00 | 33.51309 | -117.83394 | 3529 ft | 122 kts | 321° |
| 2026-05-04 04:00 | 33.51990 | -117.83967 | 3529 ft | 122 kts | 321° |
| 2026-05-04 04:00 | 33.52683 | -117.84544 | 3531 ft | 120 kts | 321° |
| 2026-05-04 04:01 | 33.53365 | -117.85116 | 3527 ft | 119 kts | 321° |
| 2026-05-04 04:01 | 33.54048 | -117.85690 | 3533 ft | 121 kts | 321° |
| 2026-05-04 04:01 | 33.54736 | -117.86269 | 3534 ft | 120 kts | 321° |
| 2026-05-04 04:01 | 33.55417 | -117.86843 | 3530 ft | 120 kts | 321° |
| 2026-05-04 04:02 | 33.56097 | -117.87418 | 3528 ft | 119 kts | 321° |
| 2026-05-04 04:02 | 33.56776 | -117.87984 | 3526 ft | 118 kts | 321° |
| 2026-05-04 04:02 | 33.57448 | -117.88545 | 3525 ft | 117 kts | 321° |
| 2026-05-04 04:02 | 33.58122 | -117.89105 | 3520 ft | 118 kts | 321° |
| 2026-05-04 04:03 | 33.58796 | -117.89656 | 3522 ft | 117 kts | 322° |
| 2026-05-04 04:03 | 33.59466 | -117.90214 | 3521 ft | 118 kts | 322° |
| 2026-05-04 04:03 | 33.60146 | -117.90773 | 3524 ft | 119 kts | 321° |
| 2026-05-04 04:03 | 33.60828 | -117.91343 | 3535 ft | 121 kts | 322° |
| 2026-05-04 04:04 | 33.61525 | -117.91917 | 3535 ft | 121 kts | 321° |
| 2026-05-04 04:04 | 33.62217 | -117.92492 | 3537 ft | 121 kts | 322° |
| 2026-05-04 04:04 | 33.62906 | -117.93059 | 3537 ft | 121 kts | 321° |
| 2026-05-04 04:04 | 33.63603 | -117.93627 | 3533 ft | 121 kts | 321° |
| 2026-05-04 04:05 | 33.64294 | -117.94200 | 3532 ft | 120 kts | 321° |
| 2026-05-04 04:05 | 33.64984 | -117.94772 | 3536 ft | 122 kts | 321° |
| 2026-05-04 04:05 | 33.65681 | -117.95344 | 3532 ft | 121 kts | 321° |
| 2026-05-04 04:05 | 33.66432 | -117.95777 | 3520 ft | 125 kts | 353° |
| 2026-05-04 04:06 | 33.67188 | -117.95301 | 3517 ft | 132 kts | 56° |
| 2026-05-04 04:06 | 33.67489 | -117.94267 | 3522 ft | 132 kts | 71° |
| 2026-05-04 04:06 | 33.67784 | -117.93227 | 3532 ft | 132 kts | 71° |
| 2026-05-04 04:06 | 33.68073 | -117.92186 | 3531 ft | 132 kts | 70° |
| 2026-05-04 04:07 | 33.68167 | -117.91121 | 3516 ft | 130 kts | 111° |
| 2026-05-04 04:07 | 33.67547 | -117.90453 | 3524 ft | 121 kts | 163° |
| 2026-05-04 04:07 | 33.66754 | -117.90122 | 3528 ft | 119 kts | 177° |
| 2026-05-04 04:07 | 33.66055 | -117.90483 | 3519 ft | 113 kts | 227° |
| 2026-05-04 04:08 | 33.65649 | -117.90887 | 3529 ft | 114 kts | 217° |
| 2026-05-04 04:08 | 33.64993 | -117.91427 | 3534 ft | 114 kts | 218° |
| 2026-05-04 04:08 | 33.64262 | -117.91786 | 3533 ft | 118 kts | 189° |
| 2026-05-04 04:08 | 33.63439 | -117.91894 | 3536 ft | 120 kts | 192° |
| 2026-05-04 04:09 | 33.62345 | -117.92066 | 3534 ft | 120 kts | 188° |
| 2026-05-04 04:09 | 33.61590 | -117.91646 | 3520 ft | 130 kts | 128° |
| 2026-05-04 04:09 | 33.61400 | -117.90952 | 3525 ft | 132 kts | 99° |
| 2026-05-04 04:09 | 33.61254 | -117.89865 | 3529 ft | 132 kts | 102° |
| 2026-05-04 04:10 | 33.61094 | -117.88772 | 3533 ft | 134 kts | 101° |
| 2026-05-04 04:10 | 33.60948 | -117.87684 | 3535 ft | 134 kts | 101° |
| 2026-05-04 04:10 | 33.60792 | -117.86581 | 3532 ft | 134 kts | 101° |
| 2026-05-04 04:10 | 33.60529 | -117.85531 | 3522 ft | 130 kts | 130° |
| 2026-05-04 04:11 | 33.59760 | -117.85131 | 3521 ft | 121 kts | 185° |
| 2026-05-04 04:11 | 33.58918 | -117.85176 | 3524 ft | 122 kts | 185° |
| 2026-05-04 04:11 | 33.58118 | -117.85387 | 3523 ft | 118 kts | 218° |
| 2026-05-04 04:11 | 33.57483 | -117.85996 | 3526 ft | 117 kts | 220° |
| 2026-05-04 04:12 | 33.56838 | -117.86593 | 3529 ft | 116 kts | 227° |
| 2026-05-04 04:12 | 33.56350 | -117.87356 | 3523 ft | 115 kts | 236° |
| 2026-05-04 04:12 | 33.55864 | -117.88125 | 3526 ft | 116 kts | 234° |
| 2026-05-04 04:12 | 33.55377 | -117.88904 | 3527 ft | 117 kts | 234° |
| 2026-05-04 04:13 | 33.54900 | -117.89670 | 3524 ft | 116 kts | 237° |
| 2026-05-04 04:13 | 33.54703 | -117.90577 | 3520 ft | 114 kts | 265° |
| 2026-05-04 04:13 | 33.54617 | -117.91517 | 3520 ft | 114 kts | 263° |
| 2026-05-04 04:13 | 33.54691 | -117.92454 | 3521 ft | 115 kts | 281° |
| 2026-05-04 04:14 | 33.55040 | -117.93300 | 3513 ft | 117 kts | 312° |
| 2026-05-04 04:14 | 33.55621 | -117.93983 | 3520 ft | 117 kts | 310° |
| 2026-05-04 04:14 | 33.56185 | -117.94679 | 3525 ft | 117 kts | 311° |
| 2026-05-04 04:14 | 33.56759 | -117.95368 | 3526 ft | 117 kts | 311° |
| 2026-05-04 04:15 | 33.57332 | -117.96061 | 3527 ft | 116 kts | 311° |
| 2026-05-04 04:15 | 33.57901 | -117.96757 | 3528 ft | 117 kts | 310° |
| 2026-05-04 04:15 | 33.58465 | -117.97441 | 3531 ft | 117 kts | 311° |
| 2026-05-04 04:15 | 33.59041 | -117.98143 | 3530 ft | 118 kts | 311° |
| 2026-05-04 04:16 | 33.59616 | -117.98844 | 3532 ft | 117 kts | 311° |
| 2026-05-04 04:16 | 33.60185 | -117.99545 | 3528 ft | 117 kts | 311° |
| 2026-05-04 04:16 | 33.60755 | -118.00243 | 3533 ft | 118 kts | 311° |
| 2026-05-04 04:16 | 33.61334 | -118.00946 | 3532 ft | 120 kts | 312° |
| 2026-05-04 04:17 | 33.61919 | -118.01660 | 3526 ft | 120 kts | 311° |
| 2026-05-04 04:17 | 33.62497 | -118.02366 | 3523 ft | 118 kts | 311° |
| 2026-05-04 04:17 | 33.63062 | -118.03065 | 3522 ft | 117 kts | 311° |
| 2026-05-04 04:17 | 33.63630 | -118.03760 | 3521 ft | 117 kts | 310° |
| 2026-05-04 04:18 | 33.64210 | -118.04451 | 3473 ft | 117 kts | 311° |
| 2026-05-04 04:18 | 33.64724 | -118.05185 | 3474 ft | 114 kts | 307° |
| 2026-05-04 04:18 | 33.65323 | -118.05830 | 3477 ft | 117 kts | 317° |
| 2026-05-04 04:18 | 33.65946 | -118.06457 | 3478 ft | 120 kts | 316° |
| 2026-05-04 04:19 | 33.66580 | -118.07102 | 3478 ft | 120 kts | 316° |
| 2026-05-04 04:19 | 33.67218 | -118.07749 | 3482 ft | 121 kts | 316° |
| 2026-05-04 04:19 | 33.67864 | -118.08409 | 3475 ft | 122 kts | 316° |
| 2026-05-04 04:19 | 33.68508 | -118.09057 | 3471 ft | 120 kts | 315° |
| 2026-05-04 04:20 | 33.69124 | -118.09677 | 3476 ft | 120 kts | 315° |
| 2026-05-04 04:20 | 33.69709 | -118.10276 | 3474 ft | 120 kts | 316° |
| 2026-05-04 04:20 | 33.70344 | -118.10917 | 3474 ft | 120 kts | 317° |
| 2026-05-04 04:20 | 33.70979 | -118.11559 | 3472 ft | 119 kts | 315° |
| 2026-05-04 04:21 | 33.71612 | -118.12198 | 3474 ft | 119 kts | 316° |
| 2026-05-04 04:21 | 33.72239 | -118.12833 | 3476 ft | 119 kts | 315° |
| 2026-05-04 04:21 | 33.72876 | -118.13479 | 3509 ft | 120 kts | 315° |
| 2026-05-04 04:21 | 33.73510 | -118.14118 | 3512 ft | 120 kts | 316° |
| 2026-05-04 04:22 | 33.74141 | -118.14757 | 3511 ft | 120 kts | 317° |
| 2026-05-04 04:22 | 33.74777 | -118.15404 | 3514 ft | 120 kts | 317° |
| 2026-05-04 04:22 | 33.75409 | -118.16053 | 3513 ft | 120 kts | 316° |
| 2026-05-04 04:22 | 33.76049 | -118.16707 | 3495 ft | 120 kts | 317° |
| 2026-05-04 04:23 | 33.76677 | -118.17363 | 3494 ft | 120 kts | 316° |
| 2026-05-04 04:23 | 33.77308 | -118.18013 | 3491 ft | 119 kts | 316° |
| 2026-05-04 04:23 | 33.77795 | -118.18517 | 3493 ft | 119 kts | 315° |
| 2026-05-04 04:23 | 33.78411 | -118.19155 | 3493 ft | 119 kts | 315° |
| 2026-05-04 04:24 | 33.79042 | -118.19808 | 3493 ft | 120 kts | 317° |
| 2026-05-04 04:24 | 33.79675 | -118.20462 | 3494 ft | 121 kts | 316° |
| 2026-05-04 04:24 | 33.80311 | -118.21117 | 3494 ft | 121 kts | 316° |
| 2026-05-04 04:24 | 33.80951 | -118.21771 | 3497 ft | 121 kts | 316° |
| 2026-05-04 04:25 | 33.81582 | -118.22418 | 3502 ft | 121 kts | 316° |
| 2026-05-04 04:25 | 33.82202 | -118.23058 | 3497 ft | 121 kts | 315° |
| 2026-05-04 04:25 | 33.82837 | -118.23722 | 3494 ft | 121 kts | 316° |
| 2026-05-04 04:25 | 33.83472 | -118.24387 | 3496 ft | 121 kts | 316° |
| 2026-05-04 04:26 | 33.84107 | -118.25046 | 3495 ft | 120 kts | 317° |
| 2026-05-04 04:26 | 33.84736 | -118.25700 | 3477 ft | 122 kts | 316° |
| 2026-05-04 04:26 | 33.85421 | -118.26420 | 3169 ft | 136 kts | 317° |
| 2026-05-04 04:26 | 33.86137 | -118.27171 | 2829 ft | 128 kts | 316° |
| 2026-05-04 04:27 | 33.86738 | -118.27777 | 2482 ft | 99 kts | 317° |
| 2026-05-04 04:27 | 33.87240 | -118.28129 | 2305 ft | 81 kts | 353° |
| 2026-05-04 04:27 | 33.87809 | -118.27933 | 2014 ft | 82 kts | 11° |
| 2026-05-04 04:27 | 33.88307 | -118.27739 | 1825 ft | 72 kts | 11° |
| 2026-05-04 04:28 | 33.88777 | -118.27555 | 1593 ft | 71 kts | 14° |
| 2026-05-04 04:28 | 33.89242 | -118.27382 | 1402 ft | 77 kts | 6° |
| 2026-05-04 04:28 | 33.89752 | -118.27180 | 1737 ft | 76 kts | 13° |
| 2026-05-04 04:28 | 33.90300 | -118.26996 | 1821 ft | 99 kts | 8° |
| 2026-05-04 04:29 | 33.91053 | -118.26819 | 1870 ft | 113 kts | 0° |
| 2026-05-04 04:29 | 33.91708 | -118.26863 | 1862 ft | 117 kts | 347° |
| 2026-05-04 04:29 | 33.92413 | -118.26984 | 2254 ft | 94 kts | 340° |
| 2026-05-04 04:29 | 33.92839 | -118.27577 | 1890 ft | 111 kts | 298° |
| 2026-05-04 04:30 | 33.93310 | -118.28215 | 2279 ft | 86 kts | 327° |
| 2026-05-04 04:30 | 33.93631 | -118.28743 | 2582 ft | 88 kts | 290° |
| 2026-05-04 04:30 | 33.93966 | -118.29512 | 2528 ft | 114 kts | 296° |
| 2026-05-04 04:30 | 33.94329 | -118.30380 | 2454 ft | 123 kts | 295° |
| 2026-05-04 04:31 | 33.94736 | -118.31328 | 2319 ft | 128 kts | 296° |
| 2026-05-04 04:31 | 33.95121 | -118.32244 | 2120 ft | 108 kts | 295° |
| 2026-05-04 04:31 | 33.95417 | -118.33046 | 1803 ft | 115 kts | 290° |
| 2026-05-04 04:31 | 33.95636 | -118.34028 | 1368 ft | 128 kts | 267° |
| 2026-05-04 04:32 | 33.95551 | -118.34983 | 1017 ft | 111 kts | 268° |
| 2026-05-04 04:32 | 33.95460 | -118.35941 | 861 ft | 117 kts | 262° |
| 2026-05-04 04:32 | 33.95365 | -118.36925 | 681 ft | 116 kts | 265° |
| 2026-05-04 04:32 | 33.95251 | -118.37819 | 559 ft | 111 kts | 263° |
| 2026-05-04 04:33 | 33.95182 | -118.38672 | 392 ft | 92 kts | 261° |
| 2026-05-04 04:33 | 33.95085 | -118.39538 | 283 ft | 111 kts | 262° |
| 2026-05-04 04:33 | 33.95010 | -118.40325 | 223 ft | 82 kts | 263° |
| 2026-05-04 04:33 | 33.94979 | -118.40954 | 573 ft | 72 kts | 262° |
| 2026-05-04 04:34 | 33.94933 | -118.41545 | 862 ft | 69 kts | 262° |
| 2026-05-04 04:34 | 33.94838 | -118.42207 | 999 ft | 85 kts | 259° |
| 2026-05-04 04:34 | 33.94689 | -118.42857 | 1257 ft | 82 kts | 211° |
| 2026-05-04 04:34 | 33.94165 | -118.42379 | 1202 ft | 114 kts | 119° |
| 2026-05-04 04:35 | 33.93833 | -118.41495 | 1226 ft | 118 kts | 116° |